Dades meteomassalio
Diari Summary for Juny 28, 2017 Units:  Metric    English   Both
« Previous Day
Next Day »
Diari Semanal Mensual Anual Personalitzat
  Maxima: Minima: Mijana:
Temperatura: 29.5 °C 18.9 °C 24.1 °C
Rosada: 14.7 °C 5.3 °C 11.7 °C
Humitat: 73 % 27 % 48 %
Velocitat del vent: 59.2 km/h 0.0 km/h 18.4 km/h
Racha vent: 59.2 km/h - -
Vent:- - WNW
Pressio: 1007.3 hPa 1002.3 hPa -
Pluja: 0.0 mm    
Historical Graphs
 
 
Tabular Data for Juny 28, 2017
Time Temperature Dew Point Pressure Wind Wind Speed Wind Gust Humidity Rainfall Rate (Hourly) solar Conditions
00:01 24.0 °C 13.2 °C 1006.7 hPa WSW 9.3 km/h 9.3 km/h 51 % 0.0 mm 0.0 W/m2 CLR
00:06 23.9 °C 13.1 °C 1006.7 hPa Calm     51 % 0.0 mm 0.0 W/m2 CLR
00:11 23.8 °C 13.3 °C 1007.0 hPa Calm     52 % 0.0 mm 0.0 W/m2 CLR
00:16 23.6 °C 13.4 °C 1006.7 hPa West 7.4 km/h 7.4 km/h 53 % 0.0 mm 0.0 W/m2 CLR
00:21 23.5 °C 13.7 °C 1006.7 hPa WNW 11.1 km/h 11.1 km/h 54 % 0.0 mm 0.0 W/m2 CLR
00:26 23.4 °C 13.6 °C 1007.0 hPa West 13.0 km/h 13.0 km/h 54 % 0.0 mm 0.0 W/m2 CLR
00:31 23.3 °C 13.8 °C 1007.0 hPa West 9.7 km/h 9.7 km/h 55 % 0.0 mm 0.0 W/m2 CLR
00:36 23.3 °C 13.7 °C 1007.0 hPa WNW 14.8 km/h 14.8 km/h 55 % 0.0 mm 0.0 W/m2 CLR
00:41 23.3 °C 13.7 °C 1007.0 hPa WNW 13.0 km/h 13.0 km/h 55 % 0.0 mm 0.0 W/m2 CLR
00:42 23.3 °C 13.7 °C 1007.0 hPa West 18.5 km/h 18.5 km/h 55 % 0.0 mm 0.0 W/m2 CLR
00:47 23.2 °C 13.7 °C 1007.0 hPa West 9.3 km/h 9.3 km/h 55 % 0.0 mm 0.0 W/m2 CLR
00:52 23.1 °C 13.6 °C 1007.0 hPa WNW 7.4 km/h 7.4 km/h 55 % 0.0 mm 0.0 W/m2 CLR
00:57 23.0 °C 13.4 °C 1007.0 hPa West 11.1 km/h 11.1 km/h 55 % 0.0 mm 0.0 W/m2 CLR
01:02 22.9 °C 13.7 °C 1007.0 hPa West 13.0 km/h 13.0 km/h 56 % 0.0 mm 0.0 W/m2 CLR
01:07 22.9 °C 13.7 °C 1007.0 hPa West 7.4 km/h 7.4 km/h 56 % 0.0 mm 0.0 W/m2 CLR
01:12 22.9 °C 13.7 °C 1007.0 hPa WNW 16.7 km/h 16.7 km/h 56 % 0.0 mm 0.0 W/m2 CLR
01:17 22.9 °C 13.7 °C 1007.3 hPa WSW 7.4 km/h 7.4 km/h 56 % 0.0 mm 0.0 W/m2 CLR
01:22 22.9 °C 13.7 °C 1007.0 hPa West 5.6 km/h 5.6 km/h 56 % 0.0 mm 0.0 W/m2 CLR
01:27 22.9 °C 13.7 °C 1007.3 hPa WSW 5.6 km/h 5.6 km/h 56 % 0.0 mm 0.0 W/m2 CLR
01:32 22.9 °C 13.7 °C 1007.3 hPa West 13.0 km/h 13.0 km/h 56 % 0.0 mm 0.0 W/m2 CLR
01:37 22.9 °C 13.7 °C 1007.3 hPa West 11.1 km/h 11.1 km/h 56 % 0.0 mm 0.0 W/m2 CLR
01:42 22.8 °C 13.6 °C 1007.3 hPa WNW 6.4 km/h 6.4 km/h 56 % 0.0 mm 0.0 W/m2 CLR
01:47 22.7 °C 13.8 °C 1007.3 hPa WNW 5.6 km/h   57 % 0.0 mm 0.0 W/m2 CLR
01:52 22.6 °C 13.7 °C 1007.3 hPa Calm     57 % 0.0 mm 0.0 W/m2 CLR
01:57 22.6 °C 13.6 °C 1007.3 hPa Calm     57 % 0.0 mm 0.0 W/m2 CLR
02:02 22.4 °C 13.8 °C 1007.3 hPa Calm     58 % 0.0 mm 0.0 W/m2 CLR
02:07 22.4 °C 13.7 °C 1007.0 hPa Calm     58 % 0.0 mm 0.0 W/m2 CLR
02:12 22.3 °C 13.7 °C 1007.0 hPa Calm     58 % 0.0 mm 0.0 W/m2 CLR
02:17 22.3 °C 13.7 °C 1007.0 hPa Calm     58 % 0.0 mm 0.0 W/m2 CLR
02:22 22.2 °C 13.6 °C 1007.0 hPa Calm     58 % 0.0 mm 0.0 W/m2 CLR
02:27 22.1 °C 13.7 °C 1007.0 hPa Calm     59 % 0.0 mm 0.0 W/m2 CLR
02:32 21.9 °C 13.6 °C 1007.0 hPa Calm     59 % 0.0 mm 0.0 W/m2 CLR
02:37 21.8 °C 13.7 °C 1007.0 hPa Calm     60 % 0.0 mm 0.0 W/m2 CLR
02:42 21.8 °C 13.7 °C 1007.0 hPa Calm     60 % 0.0 mm 0.0 W/m2 CLR
02:47 21.8 °C 13.7 °C 1007.0 hPa Calm     60 % 0.0 mm 0.0 W/m2 CLR
02:52 21.8 °C 13.7 °C 1007.0 hPa Calm     60 % 0.0 mm 0.0 W/m2 CLR
02:57 21.7 °C 13.6 °C 1007.0 hPa Calm     60 % 0.0 mm 0.0 W/m2 CLR
03:02 21.6 °C 13.7 °C 1007.0 hPa Calm     61 % 0.0 mm 0.0 W/m2 CLR
03:07 21.5 °C 13.7 °C 1007.0 hPa Calm     61 % 0.0 mm 0.0 W/m2 CLR
03:12 21.4 °C 13.8 °C 1007.0 hPa West 5.6 km/h   62 % 0.0 mm 0.0 W/m2 CLR
03:17 21.4 °C 13.8 °C 1007.0 hPa Calm   0.3 km/h 62 % 0.0 mm 0.0 W/m2 CLR
03:18 21.4 °C 13.8 °C 1007.0 hPa NW 6.4 km/h 6.4 km/h 62 % 0.0 mm 0.0 W/m2 CLR
03:23 21.4 °C 13.8 °C 1007.0 hPa WNW 3.7 km/h 3.7 km/h 62 % 0.0 mm 0.0 W/m2 CLR
03:28 21.4 °C 13.8 °C 1006.7 hPa West 3.2 km/h 3.2 km/h 62 % 0.0 mm 0.0 W/m2 CLR
03:33 21.3 °C 13.8 °C 1006.7 hPa WNW 3.2 km/h 3.2 km/h 62 % 0.0 mm 0.0 W/m2 CLR
03:38 21.3 °C 13.7 °C 1006.7 hPa West 5.6 km/h   62 % 0.0 mm 0.0 W/m2 CLR
03:43 21.2 °C 13.9 °C 1006.7 hPa WNW 6.4 km/h 6.4 km/h 63 % 0.0 mm 0.0 W/m2 CLR
03:48 21.1 °C 13.8 °C 1006.7 hPa West 4.8 km/h 4.8 km/h 63 % 0.0 mm 0.0 W/m2 CLR
03:53 21.1 °C 13.7 °C 1006.7 hPa Calm     63 % 0.0 mm 0.0 W/m2 CLR
03:58 20.9 °C 13.9 °C 1006.7 hPa WNW 5.6 km/h   64 % 0.0 mm 0.0 W/m2 CLR
04:03 20.8 °C 13.8 °C 1006.7 hPa WNW 5.6 km/h 5.6 km/h 64 % 0.0 mm 0.0 W/m2 CLR
04:08 20.8 °C 13.7 °C 1006.7 hPa WNW 6.4 km/h 6.4 km/h 64 % 0.0 mm 0.0 W/m2 CLR
04:13 20.7 °C 13.7 °C 1006.3 hPa WNW 5.6 km/h 5.6 km/h 64 % 0.0 mm 0.0 W/m2 CLR
04:18 20.8 °C 13.7 °C 1006.3 hPa Calm     64 % 0.0 mm 0.0 W/m2 CLR
04:23 20.7 °C 13.7 °C 1006.3 hPa Calm     64 % 0.0 mm 0.0 W/m2 CLR
04:28 20.6 °C 13.7 °C 1006.3 hPa Calm     65 % 0.0 mm 0.0 W/m2 CLR
04:33 20.3 °C 13.8 °C 1006.3 hPa Calm     66 % 0.0 mm 0.0 W/m2 CLR
04:38 20.2 °C 13.7 °C 1006.3 hPa Calm     66 % 0.0 mm 0.0 W/m2 CLR
04:43 20.1 °C 13.8 °C 1006.3 hPa West 7.4 km/h 7.4 km/h 67 % 0.0 mm 0.0 W/m2 CLR
04:49 20.1 °C 14.0 °C 1006.3 hPa WSW 9.3 km/h 9.3 km/h 68 % 0.0 mm 0.0 W/m2 CLR
04:54 20.2 °C 14.1 °C 1006.3 hPa SW 7.4 km/h 7.4 km/h 68 % 0.0 mm 0.0 W/m2 CLR
04:59 20.1 °C 14.0 °C 1006.3 hPa West 6.4 km/h 6.4 km/h 68 % 0.0 mm 0.0 W/m2 CLR
05:04 20.1 °C 14.2 °C 1006.3 hPa Calm     69 % 0.0 mm 0.0 W/m2 CLR
05:09 20.0 °C 14.1 °C 1006.3 hPa Calm     69 % 0.0 mm 0.0 W/m2 CLR
05:14 20.0 °C 14.1 °C 1006.3 hPa West 5.6 km/h 5.6 km/h 69 % 0.0 mm 0.0 W/m2 CLR
05:19 20.0 °C 14.1 °C 1006.3 hPa WSW 5.6 km/h 5.6 km/h 69 % 0.0 mm 0.0 W/m2 CLR
05:24 20.0 °C 14.1 °C 1006.3 hPa WNW 9.7 km/h 9.7 km/h 69 % 0.0 mm 0.0 W/m2 CLR
05:29 20.0 °C 13.9 °C 1006.3 hPa West 1.9 km/h   68 % 0.0 mm 0.0 W/m2 CLR
05:34 20.1 °C 13.6 °C 1006.3 hPa WNW 13.0 km/h 13.0 km/h 66 % 0.0 mm 0.0 W/m2 CLR
05:39 20.3 °C 13.2 °C 1006.3 hPa NW 20.4 km/h 20.4 km/h 64 % 0.0 mm 0.0 W/m2 CLR
05:44 20.5 °C 13.2 °C 1006.3 hPa WNW 20.4 km/h 20.4 km/h 63 % 0.0 mm 0.0 W/m2 CLR
05:49 20.7 °C 13.1 °C 1006.3 hPa WNW 24.1 km/h 24.1 km/h 62 % 0.0 mm 0.0 W/m2 CLR
05:54 20.7 °C 13.2 °C 1006.3 hPa WNW 22.2 km/h 22.2 km/h 62 % 0.0 mm 0.0 W/m2 CLR
05:59 20.6 °C 13.1 °C 1006.3 hPa NW 22.2 km/h 22.2 km/h 62 % 0.0 mm 0.0 W/m2 CLR
06:04 20.5 °C 12.9 °C 1006.3 hPa West 19.3 km/h 19.3 km/h 62 % 0.0 mm 0.0 W/m2 CLR
06:09 20.3 °C 13.1 °C 1006.3 hPa WNW 18.5 km/h 18.5 km/h 63 % 0.0 mm 0.0 W/m2 CLR
06:14 20.2 °C 13.1 °C 1006.3 hPa WNW 18.5 km/h 18.5 km/h 64 % 0.0 mm 0.0 W/m2 CLR
06:19 20.1 °C 13.3 °C 1006.3 hPa WNW 14.8 km/h 14.8 km/h 65 % 0.0 mm 0.0 W/m2 OVC
06:24 19.9 °C 13.6 °C 1006.3 hPa WNW 16.7 km/h 16.7 km/h 67 % 0.0 mm 0.0 W/m2 OVC
06:29 19.8 °C 13.4 °C 1006.3 hPa NW 9.3 km/h 9.3 km/h 67 % 0.0 mm 0.0 W/m2 OVC
06:34 19.6 °C 13.5 °C 1006.3 hPa NW 7.4 km/h 7.4 km/h 68 % 0.0 mm 7.0 W/m2 BKN
06:39 19.5 °C 13.7 °C 1006.3 hPa NW 12.9 km/h 12.9 km/h 69 % 0.0 mm 7.0 W/m2 BKN
06:44 19.4 °C 13.8 °C 1006.7 hPa NW 14.8 km/h 14.8 km/h 70 % 0.0 mm 11.0 W/m2 BKN
06:49 19.4 °C 14.1 °C 1006.3 hPa WNW 14.8 km/h 14.8 km/h 71 % 0.0 mm 11.0 W/m2 BKN
06:54 19.5 °C 14.1 °C 1006.3 hPa WNW 13.0 km/h 13.0 km/h 71 % 0.0 mm 11.0 W/m2 BKN
06:59 19.5 °C 14.1 °C 1006.7 hPa WNW 11.1 km/h 11.1 km/h 71 % 0.0 mm 11.0 W/m2 BKN
07:04 19.4 °C 14.2 °C 1006.7 hPa NW 7.4 km/h 7.4 km/h 72 % 0.0 mm 12.0 W/m2 BKN
07:09 19.2 °C 14.1 °C 1006.7 hPa NW 7.4 km/h 7.4 km/h 72 % 0.0 mm 12.0 W/m2 BKN
07:14 19.1 °C 14.2 °C 1006.7 hPa Calm   1.6 km/h 73 % 0.0 mm 21.0 W/m2 BKN
07:19 19.0 °C 14.1 °C 1006.7 hPa WNW 5.6 km/h 5.6 km/h 73 % 0.0 mm 28.0 W/m2 BKN
07:24 18.9 °C 14.0 °C 1006.7 hPa West 7.4 km/h 7.4 km/h 73 % 0.0 mm 30.0 W/m2 BKN
07:29 18.9 °C 13.9 °C 1006.7 hPa WNW 5.6 km/h 5.6 km/h 73 % 0.0 mm 74.0 W/m2 FEW
07:34 19.0 °C 14.1 °C 1006.7 hPa NW 5.6 km/h 5.6 km/h 73 % 0.0 mm 91.0 W/m2 SCT
07:39 19.1 °C 13.9 °C 1006.7 hPa NW 7.4 km/h 7.4 km/h 72 % 0.0 mm 39.0 W/m2 CLR
07:44 19.1 °C 13.9 °C 1006.7 hPa North 6.4 km/h 6.4 km/h 72 % 0.0 mm 95.0 W/m2 FEW
07:49 19.1 °C 13.9 °C 1006.7 hPa NW 11.1 km/h 11.1 km/h 72 % 0.0 mm 63.0 W/m2 SCT
07:54 19.2 °C 14.0 °C 1006.7 hPa NW 5.6 km/h 5.6 km/h 72 % 0.0 mm 102.0 W/m2 FEW
07:59 19.2 °C 14.1 °C 1007.0 hPa NW 9.3 km/h 9.3 km/h 72 % 0.0 mm 195.0 W/m2 CLR
08:04 19.3 °C 14.2 °C 1007.0 hPa Calm     72 % 0.0 mm 114.0 W/m2 CLR
08:09 19.4 °C 14.3 °C 1007.0 hPa NNW 14.8 km/h 14.8 km/h 72 % 0.0 mm 220.0 W/m2 CLR
08:14 19.6 °C 14.2 °C 1007.0 hPa NW 13.0 km/h 13.0 km/h 71 % 0.0 mm 221.0 W/m2 CLR
08:19 19.6 °C 14.2 °C 1007.0 hPa NNW 7.4 km/h 7.4 km/h 71 % 0.0 mm 244.0 W/m2 FEW
08:25 19.8 °C 14.6 °C 1007.0 hPa NW 9.3 km/h 9.3 km/h 72 % 0.0 mm 232.0 W/m2 FEW
08:30 19.9 °C 14.5 °C 1007.0 hPa NW 11.1 km/h 11.1 km/h 71 % 0.0 mm 97.0 W/m2 CLR
08:35 20.0 °C 14.3 °C 1007.0 hPa NNW 14.8 km/h 14.8 km/h 70 % 0.0 mm 339.0 W/m2 CLR
08:40 20.0 °C 14.3 °C 1007.0 hPa NW 18.5 km/h 18.5 km/h 70 % 0.0 mm 79.0 W/m2 CLR
08:45 19.9 °C 14.3 °C 1007.0 hPa WNW 7.4 km/h 7.4 km/h 70 % 0.0 mm 118.0 W/m2 CLR
08:50 20.1 °C 14.4 °C 1006.7 hPa NW 5.6 km/h 5.6 km/h 70 % 0.0 mm 330.0 W/m2 CLR
08:55 20.4 °C 14.3 °C 1006.7 hPa NW 13.0 km/h 13.0 km/h 68 % 0.0 mm 355.0 W/m2 CLR
09:00 20.6 °C 14.5 °C 1006.7 hPa NW 9.7 km/h 9.7 km/h 68 % 0.0 mm 390.0 W/m2 CLR
09:05 20.8 °C 14.2 °C 1007.0 hPa NW 14.8 km/h 14.8 km/h 66 % 0.0 mm 411.0 W/m2 CLR
09:10 21.1 °C 14.7 °C 1007.0 hPa NW 16.1 km/h 16.1 km/h 67 % 0.0 mm 424.0 W/m2 CLR
09:15 21.2 °C 14.4 °C 1006.7 hPa WNW 18.5 km/h 18.5 km/h 65 % 0.0 mm 424.0 W/m2 CLR
09:20 21.4 °C 14.3 °C 1006.7 hPa NW 11.1 km/h 11.1 km/h 64 % 0.0 mm 429.0 W/m2 CLR
09:25 21.6 °C 14.2 °C 1006.7 hPa NW 3.7 km/h   63 % 0.0 mm 443.0 W/m2 CLR
09:30 21.7 °C 14.4 °C 1006.7 hPa WNW 5.6 km/h 5.6 km/h 63 % 0.0 mm 452.0 W/m2 CLR
09:35 21.9 °C 14.6 °C 1006.7 hPa Calm     63 % 0.0 mm 462.0 W/m2 CLR
09:40 22.2 °C 14.3 °C 1006.7 hPa NW 13.0 km/h 13.0 km/h 61 % 0.0 mm 483.0 W/m2 CLR
09:45 22.3 °C 14.1 °C 1006.7 hPa NNW 16.7 km/h 16.7 km/h 60 % 0.0 mm 508.0 W/m2 CLR
09:50 22.3 °C 13.9 °C 1006.7 hPa NW 22.2 km/h 22.2 km/h 59 % 0.0 mm 529.0 W/m2 CLR
09:55 22.4 °C 13.8 °C 1006.7 hPa WNW 11.1 km/h 11.1 km/h 58 % 0.0 mm 547.0 W/m2 CLR
09:56 22.5 °C 13.8 °C 1006.7 hPa WNW 20.4 km/h 20.4 km/h 58 % 0.0 mm 543.0 W/m2 CLR
10:01 22.6 °C 13.9 °C 1006.7 hPa WNW 16.7 km/h 16.7 km/h 58 % 0.0 mm 585.0 W/m2 CLR
10:06 22.9 °C 13.7 °C 1006.7 hPa WNW 18.5 km/h 18.5 km/h 56 % 0.0 mm 687.0 W/m2 CLR
10:11 22.7 °C 13.8 °C 1006.3 hPa NW 8.0 km/h 8.0 km/h 57 % 0.0 mm 608.0 W/m2 CLR
10:16 22.7 °C 13.5 °C 1006.3 hPa NW 13.0 km/h   56 % 0.0 mm 592.0 W/m2 CLR
10:21 23.0 °C 13.7 °C 1006.3 hPa West 9.7 km/h 9.7 km/h 56 % 0.0 mm 603.0 W/m2 CLR
10:26 23.1 °C 13.0 °C 1006.0 hPa NW 31.5 km/h 31.5 km/h 53 % 0.0 mm 619.0 W/m2 CLR
10:31 23.2 °C 12.8 °C 1006.3 hPa NNW 19.3 km/h 19.3 km/h 52 % 0.0 mm 633.0 W/m2 CLR
10:36 23.3 °C 13.2 °C 1006.0 hPa NW 24.1 km/h 24.1 km/h 53 % 0.0 mm 647.0 W/m2 CLR
10:41 23.4 °C 12.9 °C 1006.0 hPa WNW 16.7 km/h 16.7 km/h 52 % 0.0 mm 661.0 W/m2 CLR
10:46 23.6 °C 13.2 °C 1006.0 hPa West 13.0 km/h 13.0 km/h 52 % 0.0 mm 686.0 W/m2 CLR
10:51 23.8 °C 13.1 °C 1006.0 hPa NW 9.3 km/h 9.3 km/h 51 % 0.0 mm 691.0 W/m2 CLR
10:56 24.0 °C 12.9 °C 1006.0 hPa WNW 22.2 km/h 22.2 km/h 50 % 0.0 mm 717.0 W/m2 CLR
11:01 24.0 °C 12.9 °C 1006.0 hPa WNW 24.1 km/h 24.1 km/h 50 % 0.0 mm 749.0 W/m2 CLR
11:06 24.1 °C 12.7 °C 1006.0 hPa NNW 18.5 km/h 18.5 km/h 49 % 0.0 mm 784.0 W/m2 CLR
11:11 24.2 °C 12.8 °C 1006.0 hPa NW 33.3 km/h 33.3 km/h 49 % 0.0 mm 772.0 W/m2 CLR
11:16 24.2 °C 12.8 °C 1006.0 hPa WNW 18.5 km/h 18.5 km/h 49 % 0.0 mm 775.0 W/m2 CLR
11:21 24.6 °C 13.1 °C 1005.6 hPa NW 20.4 km/h 20.4 km/h 49 % 0.0 mm 819.0 W/m2 CLR
11:26 24.6 °C 13.1 °C 1005.6 hPa NW 20.4 km/h 20.4 km/h 49 % 0.0 mm 828.0 W/m2 CLR
11:31 24.6 °C 13.2 °C 1006.0 hPa NW 18.5 km/h 18.5 km/h 49 % 0.0 mm 830.0 W/m2 CLR
11:36 24.6 °C 13.1 °C 1005.6 hPa West 5.6 km/h 5.6 km/h 49 % 0.0 mm 881.0 W/m2 CLR
11:41 24.7 °C 13.3 °C 1005.6 hPa NNW 18.5 km/h 18.5 km/h 49 % 0.0 mm 911.0 W/m2 CLR
11:46 24.8 °C 13.4 °C 1005.6 hPa NW 11.1 km/h 11.1 km/h 49 % 0.0 mm 882.0 W/m2 CLR
11:51 25.1 °C 12.7 °C 1005.6 hPa West 13.0 km/h 13.0 km/h 46 % 0.0 mm 204.0 W/m2 CLR
11:56 24.7 °C 12.9 °C 1005.6 hPa WNW 18.5 km/h 18.5 km/h 48 % 0.0 mm 209.0 W/m2 CLR
12:01 24.8 °C 12.4 °C 1005.6 hPa WNW 20.4 km/h 20.4 km/h 46 % 0.0 mm 904.0 W/m2 CLR
12:06 25.2 °C 12.7 °C 1005.6 hPa NW 16.7 km/h 16.7 km/h 46 % 0.0 mm 898.0 W/m2 CLR
12:11 25.1 °C 12.7 °C 1005.6 hPa WNW 18.5 km/h 18.5 km/h 46 % 0.0 mm 914.0 W/m2 CLR
12:16 25.4 °C 12.9 °C 1005.3 hPa NW 18.5 km/h 18.5 km/h 46 % 0.0 mm 1016.0 W/m2 CLR
12:21 25.8 °C 12.9 °C 1005.3 hPa North 18.5 km/h 18.5 km/h 45 % 0.0 mm 1005.0 W/m2 CLR
12:26 25.9 °C 13.1 °C 1005.3 hPa NW 16.7 km/h 16.7 km/h 45 % 0.0 mm 944.0 W/m2 CLR
12:31 26.1 °C 12.8 °C 1005.3 hPa West 18.5 km/h 18.5 km/h 44 % 0.0 mm 355.0 W/m2 CLR
12:36 26.0 °C 12.8 °C 1005.3 hPa North 14.5 km/h 14.5 km/h 44 % 0.0 mm 276.0 W/m2 CLR
12:41 26.0 °C 12.8 °C 1005.3 hPa NNW 20.9 km/h 20.9 km/h 44 % 0.0 mm 276.0 W/m2 CLR
12:46 25.8 °C 12.7 °C 1005.3 hPa NNW 22.5 km/h 22.5 km/h 44 % 0.0 mm 431.0 W/m2 CLR
12:51 26.0 °C 13.2 °C 1005.3 hPa NNW 13.0 km/h 13.0 km/h 45 % 0.0 mm 1125.0 W/m2 CLR
12:56 26.4 °C 13.2 °C 1005.0 hPa NW 13.0 km/h 13.0 km/h 44 % 0.0 mm 1002.0 W/m2 CLR
13:01 26.8 °C 12.5 °C 1005.0 hPa West 18.5 km/h 18.5 km/h 41 % 0.0 mm 1076.0 W/m2 CLR
13:03 27.0 °C 12.6 °C 1005.0 hPa West 25.9 km/h 25.9 km/h 41 % 0.0 mm 1120.0 W/m2 CLR
13:08 27.1 °C 12.7 °C 1004.6 hPa NNW 18.5 km/h 18.5 km/h 41 % 0.0 mm 211.0 W/m2 CLR
13:13 26.6 °C 12.6 °C 1005.0 hPa WNW 18.5 km/h 18.5 km/h 42 % 0.0 mm 244.0 W/m2 CLR
13:18 26.3 °C 12.0 °C 1004.6 hPa NW 17.7 km/h 17.7 km/h 41 % 0.0 mm 1118.0 W/m2 CLR
13:23 26.8 °C 12.1 °C 1004.6 hPa NW 18.5 km/h 18.5 km/h 40 % 0.0 mm 1192.0 W/m2 CLR
13:29 26.8 °C 12.1 °C 1004.6 hPa West 18.5 km/h 18.5 km/h 40 % 0.0 mm 258.0 W/m2 CLR
13:34 26.9 °C 11.4 °C 1004.6 hPa NW 18.5 km/h 18.5 km/h 38 % 0.0 mm 309.0 W/m2 CLR
13:44 27.2 °C 11.2 °C 1004.6 hPa NW 20.4 km/h 20.4 km/h 37 % 0.0 mm 434.0 W/m2 CLR
13:49 27.4 °C 11.1 °C 1004.6 hPa NNW 33.8 km/h 33.8 km/h 36 % 0.0 mm 258.0 W/m2 CLR
13:59 27.6 °C 10.8 °C 1004.3 hPa NNW 20.9 km/h 20.9 km/h 35 % 0.0 mm 1111.0 W/m2 CLR
14:04 27.9 °C 11.1 °C 1004.3 hPa NNW 24.1 km/h 24.1 km/h 35 % 0.0 mm 246.0 W/m2 CLR
14:09 28.0 °C 10.7 °C 1004.3 hPa WNW 31.5 km/h 31.5 km/h 34 % 0.0 mm 1253.0 W/m2 CLR
14:14 28.2 °C 9.9 °C 1004.3 hPa WNW 20.4 km/h 20.4 km/h 32 % 0.0 mm 360.0 W/m2 CLR
14:19 28.2 °C 9.9 °C 1004.3 hPa West 37.0 km/h 37.0 km/h 32 % 0.0 mm 1164.0 W/m2 CLR
14:24 28.3 °C 10.0 °C 1004.3 hPa WNW 25.9 km/h 25.9 km/h 32 % 0.0 mm 1083.0 W/m2 CLR
14:29 28.7 °C 9.9 °C 1004.3 hPa WNW 22.2 km/h 22.2 km/h 31 % 0.0 mm 1081.0 W/m2 CLR
14:34 28.9 °C 10.1 °C 1003.9 hPa NNW 25.9 km/h 25.9 km/h 31 % 0.0 mm 1039.0 W/m2 CLR
14:39 28.6 °C 9.8 °C 1003.9 hPa NW 22.2 km/h 22.2 km/h 31 % 0.0 mm 315.0 W/m2 CLR
14:44 28.2 °C 9.9 °C 1003.9 hPa NW 33.3 km/h 33.3 km/h 32 % 0.0 mm 492.0 W/m2 CLR
14:49 28.1 °C 9.8 °C 1003.9 hPa NW 33.3 km/h 33.3 km/h 32 % 0.0 mm 1169.0 W/m2 CLR
14:54 28.4 °C 10.2 °C 1003.9 hPa NNW 29.6 km/h 29.6 km/h 32 % 0.0 mm 248.0 W/m2 CLR
14:59 28.6 °C 9.8 °C 1003.9 hPa NW 31.5 km/h 31.5 km/h 31 % 0.0 mm 290.0 W/m2 CLR
15:04 27.9 °C 9.7 °C 1003.9 hPa NW 20.4 km/h 20.4 km/h 32 % 0.0 mm 1090.0 W/m2 CLR
15:09 28.2 °C 9.9 °C 1003.9 hPa WNW 25.9 km/h 25.9 km/h 32 % 0.0 mm 1090.0 W/m2 CLR
15:14 28.4 °C 9.6 °C 1003.9 hPa WNW 16.7 km/h 16.7 km/h 31 % 0.0 mm 450.0 W/m2 CLR
15:15 28.4 °C 9.7 °C 1003.6 hPa NW 16.7 km/h 16.7 km/h 31 % 0.0 mm 450.0 W/m2 CLR
15:20 29.1 °C 9.8 °C 1003.6 hPa North 25.7 km/h 25.7 km/h 30 % 0.0 mm 1099.0 W/m2 CLR
15:25 29.5 °C 9.6 °C 1003.6 hPa WNW 31.5 km/h 31.5 km/h 29 % 0.0 mm 1037.0 W/m2 CLR
15:30 29.4 °C 9.5 °C 1003.3 hPa NW 44.4 km/h 44.4 km/h 29 % 0.0 mm 1000.0 W/m2 CLR
15:35 29.4 °C 9.6 °C 1003.6 hPa WNW 31.5 km/h 31.5 km/h 29 % 0.0 mm 1004.0 W/m2 CLR
15:40 29.4 °C 9.0 °C 1003.6 hPa NW 31.5 km/h 31.5 km/h 28 % 0.0 mm 325.0 W/m2 CLR
15:45 28.7 °C 8.9 °C 1003.3 hPa NW 27.8 km/h 27.8 km/h 29 % 0.0 mm 214.0 W/m2 CLR
15:50 28.8 °C 9.5 °C 1003.3 hPa WNW 33.3 km/h 33.3 km/h 30 % 0.0 mm 1039.0 W/m2 CLR
15:55 29.1 °C 9.2 °C 1003.3 hPa NNW 31.5 km/h 31.5 km/h 29 % 0.0 mm 1118.0 W/m2 CLR
16:00 29.4 °C 9.0 °C 1002.9 hPa WSW 20.4 km/h 20.4 km/h 28 % 0.0 mm 264.0 W/m2 CLR
16:05 29.0 °C 8.1 °C 1002.9 hPa NNW 33.3 km/h 33.3 km/h 27 % 0.0 mm 142.0 W/m2 CLR
16:10 28.3 °C 8.0 °C 1003.3 hPa NW 33.3 km/h 33.3 km/h 28 % 0.0 mm 95.0 W/m2 CLR
16:12 28.1 °C 7.9 °C 1003.3 hPa NNW 29.6 km/h 29.6 km/h 28 % 0.0 mm 98.0 W/m2 CLR
16:17 27.7 °C 9.9 °C 1003.3 hPa NW 31.5 km/h 31.5 km/h 33 % 0.0 mm 86.0 W/m2 CLR
16:22 26.9 °C 9.3 °C 1003.3 hPa NNW 33.3 km/h 33.3 km/h 33 % 0.0 mm 130.0 W/m2 CLR
16:27 27.0 °C 10.7 °C 1003.3 hPa NW 19.3 km/h 19.3 km/h 36 % 0.0 mm 214.0 W/m2 CLR
16:32 27.7 °C 9.5 °C 1002.9 hPa WNW 24.1 km/h 24.1 km/h 32 % 0.0 mm 396.0 W/m2 CLR
16:37 27.9 °C 9.2 °C 1003.3 hPa WNW 29.6 km/h 29.6 km/h 31 % 0.0 mm 404.0 W/m2 CLR
16:42 28.1 °C 9.4 °C 1002.9 hPa WNW 18.5 km/h 18.5 km/h 31 % 0.0 mm 381.0 W/m2 CLR
16:47 28.2 °C 9.4 °C 1002.9 hPa NW 24.1 km/h 24.1 km/h 31 % 0.0 mm 294.0 W/m2 CLR
16:52 28.1 °C 9.8 °C 1002.6 hPa NW 22.5 km/h 22.5 km/h 32 % 0.0 mm 258.0 W/m2 CLR
16:57 27.9 °C 10.1 °C 1002.6 hPa NW 27.8 km/h 27.8 km/h 33 % 0.0 mm 258.0 W/m2 CLR
17:02 27.8 °C 10.1 °C 1002.6 hPa WNW 20.4 km/h 20.4 km/h 33 % 0.0 mm 234.0 W/m2 CLR
17:07 27.8 °C 9.6 °C 1002.6 hPa NW 16.7 km/h 16.7 km/h 32 % 0.0 mm 193.0 W/m2 CLR
17:12 28.1 °C 10.3 °C 1002.6 hPa NNW 35.2 km/h 35.2 km/h 33 % 0.0 mm 206.0 W/m2 CLR
17:17 28.3 °C 10.1 °C 1002.9 hPa WNW 44.4 km/h 44.4 km/h 32 % 0.0 mm 255.0 W/m2 CLR
17:22 27.9 °C 9.7 °C 1002.9 hPa West 50.0 km/h 50.0 km/h 32 % 0.0 mm 271.0 W/m2 CLR
17:27 27.7 °C 10.0 °C 1002.9 hPa WNW 27.8 km/h 27.8 km/h 33 % 0.0 mm 195.0 W/m2 CLR
17:32 27.6 °C 9.9 °C 1003.9 hPa NW 59.2 km/h 59.2 km/h 33 % 0.0 mm 149.0 W/m2 CLR
17:37 25.0 °C 10.8 °C 1003.9 hPa North 49.9 km/h 49.9 km/h 41 % 0.0 mm 220.0 W/m2 CLR
17:42 24.1 °C 11.1 °C 1003.9 hPa NNW 37.0 km/h 37.0 km/h 44 % 0.0 mm 369.0 W/m2 CLR
17:47 24.5 °C 11.1 °C 1003.6 hPa NNW 42.6 km/h 42.6 km/h 43 % 0.0 mm 708.0 W/m2 CLR
17:52 24.9 °C 11.2 °C 1003.3 hPa NNW 27.8 km/h 27.8 km/h 42 % 0.0 mm 622.0 W/m2 CLR
17:57 25.2 °C 11.0 °C 1003.3 hPa NNW 27.8 km/h 27.8 km/h 41 % 0.0 mm 608.0 W/m2 CLR
18:02 25.2 °C 10.6 °C 1002.9 hPa NW 18.5 km/h 18.5 km/h 40 % 0.0 mm 156.0 W/m2 CLR
18:07 25.3 °C 10.7 °C 1002.9 hPa NNW 29.6 km/h 29.6 km/h 40 % 0.0 mm 415.0 W/m2 CLR
18:12 25.6 °C 11.0 °C 1002.9 hPa NW 20.4 km/h 20.4 km/h 40 % 0.0 mm 631.0 W/m2 CLR
18:17 26.1 °C 10.6 °C 1002.9 hPa NNW 22.2 km/h 22.2 km/h 38 % 0.0 mm 645.0 W/m2 CLR
18:22 26.0 °C 10.6 °C 1002.6 hPa NW 19.3 km/h 19.3 km/h 38 % 0.0 mm 501.0 W/m2 CLR
18:27 26.1 °C 10.7 °C 1002.6 hPa NNW 16.1 km/h 16.1 km/h 38 % 0.0 mm 329.0 W/m2 CLR
18:32 26.6 °C 10.7 °C 1002.6 hPa NW 20.9 km/h 20.9 km/h 37 % 0.0 mm 322.0 W/m2 CLR
18:37 26.5 °C 10.6 °C 1002.6 hPa NW 20.4 km/h 20.4 km/h 37 % 0.0 mm 269.0 W/m2 CLR
18:42 26.9 °C 10.6 °C 1002.3 hPa WNW 18.5 km/h 18.5 km/h 36 % 0.0 mm 561.0 W/m2 CLR
18:47 27.4 °C 11.1 °C 1002.3 hPa NW 22.2 km/h 22.2 km/h 36 % 0.0 mm 476.0 W/m2 CLR
18:52 27.7 °C 10.8 °C 1002.3 hPa NW 20.9 km/h 20.9 km/h 35 % 0.0 mm 469.0 W/m2 CLR
18:57 27.6 °C 10.8 °C 1002.3 hPa NW 29.6 km/h 29.6 km/h 35 % 0.0 mm 425.0 W/m2 CLR
18:58 27.6 °C 10.7 °C 1002.3 hPa NW 25.9 km/h 25.9 km/h 35 % 0.0 mm 429.0 W/m2 CLR
19:03 27.3 °C 10.9 °C 1002.3 hPa NW 20.4 km/h 20.4 km/h 36 % 0.0 mm 446.0 W/m2 CLR
19:08 27.6 °C 10.7 °C 1002.3 hPa WNW 24.1 km/h 24.1 km/h 35 % 0.0 mm 466.0 W/m2 CLR
19:13 27.9 °C 11.0 °C 1002.3 hPa North 14.8 km/h 14.8 km/h 35 % 0.0 mm 417.0 W/m2 CLR
19:18 27.9 °C 11.0 °C 1002.3 hPa NNW 14.8 km/h 16.1 km/h 35 % 0.0 mm 376.0 W/m2 CLR
19:23 28.0 °C 9.8 °C 1002.6 hPa NW 35.2 km/h 35.2 km/h 32 % 0.0 mm 323.0 W/m2 CLR
19:29 27.6 °C 9.8 °C 1002.6 hPa NW 33.3 km/h 33.3 km/h 33 % 0.0 mm 352.0 W/m2 CLR
19:34 27.6 °C 9.9 °C 1002.6 hPa WNW 33.8 km/h 33.8 km/h 33 % 0.0 mm 336.0 W/m2 CLR
19:39 27.6 °C 10.8 °C 1002.6 hPa WNW 35.2 km/h 35.2 km/h 35 % 0.0 mm 283.0 W/m2 CLR
19:44 27.5 °C 10.7 °C 1002.6 hPa West 37.0 km/h 37.0 km/h 35 % 0.0 mm 258.0 W/m2 CLR
19:48 27.6 °C 10.7 °C 1002.6 hPa WNW 27.8 km/h 29.3 km/h 35 % 0.0 mm 239.0 W/m2 CLR
19:54 27.4 °C 10.6 °C 1002.6 hPa WNW 31.5 km/h 31.5 km/h 35 % 0.0 mm 227.0 W/m2 CLR
19:59 27.3 °C 10.5 °C 1002.6 hPa WNW 40.2 km/h 40.2 km/h 35 % 0.0 mm 33.0 W/m2 CLR
20:04 27.0 °C 10.2 °C 1002.6 hPa West 29.6 km/h 29.6 km/h 35 % 0.0 mm 199.0 W/m2 FEW
20:14 27.2 °C 9.6 °C 1002.9 hPa WNW 42.6 km/h 42.6 km/h 33 % 0.0 mm 185.0 W/m2 CLR
20:19 27.2 °C 9.9 °C 1002.9 hPa WNW 44.4 km/h 44.4 km/h 34 % 0.0 mm 162.0 W/m2 CLR
20:24 27.2 °C 10.0 °C 1002.9 hPa WNW 37.0 km/h 37.0 km/h 34 % 0.0 mm 153.0 W/m2 CLR
20:29 27.1 °C 10.3 °C 1002.9 hPa NNW 35.2 km/h 35.2 km/h 35 % 0.0 mm 49.0 W/m2 CLR
20:34 26.8 °C 10.5 °C 1002.9 hPa NW 33.3 km/h 33.3 km/h 36 % 0.0 mm 40.0 W/m2 SCT
20:39 26.6 °C 10.7 °C 1002.9 hPa WNW 40.7 km/h 40.7 km/h 37 % 0.0 mm 46.0 W/m2 SCT
20:44 26.6 °C 10.7 °C 1003.3 hPa WNW 31.5 km/h 31.5 km/h 37 % 0.0 mm 72.0 W/m2 FEW
20:49 26.6 °C 10.7 °C 1003.3 hPa WNW 25.9 km/h 25.9 km/h 37 % 0.0 mm 54.0 W/m2 SCT
20:54 26.6 °C 10.7 °C 1003.3 hPa WNW 31.5 km/h 31.5 km/h 37 % 0.0 mm 58.0 W/m2 SCT
20:59 26.6 °C 10.3 °C 1003.3 hPa NW 32.2 km/h 32.2 km/h 36 % 0.0 mm 54.0 W/m2 SCT
21:04 26.5 °C 9.8 °C 1003.6 hPa NNW 20.4 km/h 20.4 km/h 35 % 0.0 mm 44.0 W/m2 BKN
21:09 26.4 °C 7.9 °C 1003.6 hPa WNW 41.8 km/h 41.8 km/h 31 % 0.0 mm 26.0 W/m2 BKN
21:14 26.2 °C 7.3 °C 1003.6 hPa WNW 37.0 km/h 37.0 km/h 30 % 0.0 mm 21.0 W/m2 BKN
21:19 26.1 °C 7.1 °C 1003.6 hPa NW 40.7 km/h 40.7 km/h 30 % 0.0 mm 16.0 W/m2 BKN
21:24 25.9 °C 7.1 °C 1003.9 hPa NNW 30.6 km/h 30.6 km/h 30 % 0.0 mm 11.0 W/m2 BKN
21:29 25.8 °C 6.9 °C 1003.9 hPa West 31.5 km/h 31.5 km/h 30 % 0.0 mm 7.0 W/m2 BKN
21:34 25.7 °C 6.8 °C 1003.6 hPa NW 42.6 km/h 42.6 km/h 30 % 0.0 mm 5.0 W/m2 OVC
21:39 25.6 °C 6.7 °C 1003.9 hPa WNW 22.2 km/h 22.2 km/h 30 % 0.0 mm 0.0 W/m2 OVC
21:44 25.4 °C 6.6 °C 1003.9 hPa NW 31.5 km/h 31.5 km/h 30 % 0.0 mm 0.0 W/m2 OVC
21:49 25.3 °C 6.0 °C 1004.3 hPa NW 18.5 km/h 18.5 km/h 29 % 0.0 mm 0.0 W/m2 CLR
21:54 25.2 °C 5.9 °C 1004.3 hPa NW 29.6 km/h 29.6 km/h 29 % 0.0 mm 0.0 W/m2 CLR
21:59 25.1 °C 5.3 °C 1004.3 hPa NW 33.8 km/h 33.8 km/h 28 % 0.0 mm 0.0 W/m2 CLR
22:04 25.1 °C 5.3 °C 1004.3 hPa NW 30.6 km/h 30.6 km/h 28 % 0.0 mm 0.0 W/m2 CLR
22:09 24.9 °C 5.7 °C 1004.6 hPa NW 29.6 km/h 29.6 km/h 29 % 0.0 mm 0.0 W/m2 CLR
22:14 24.9 °C 5.6 °C 1004.6 hPa NW 24.1 km/h 24.1 km/h 29 % 0.0 mm 0.0 W/m2 CLR
22:19 24.8 °C 5.6 °C 1004.6 hPa West 31.5 km/h 31.5 km/h 29 % 0.0 mm 0.0 W/m2 CLR
22:24 24.7 °C 5.5 °C 1004.6 hPa WNW 25.9 km/h 25.9 km/h 29 % 0.0 mm 0.0 W/m2 CLR
22:29 24.7 °C 5.4 °C 1005.0 hPa NW 22.2 km/h 22.2 km/h 29 % 0.0 mm 0.0 W/m2 CLR
22:34 24.5 °C 5.8 °C 1005.0 hPa NW 24.1 km/h 24.1 km/h 30 % 0.0 mm 0.0 W/m2 CLR
22:39 24.4 °C 5.7 °C 1005.0 hPa WNW 31.5 km/h 31.5 km/h 30 % 0.0 mm 0.0 W/m2 CLR
22:44 24.5 °C 5.8 °C 1005.0 hPa WNW 24.1 km/h 24.1 km/h 30 % 0.0 mm 0.0 W/m2 CLR
22:49 24.4 °C 5.7 °C 1005.0 hPa WNW 29.6 km/h 29.6 km/h 30 % 0.0 mm 0.0 W/m2 CLR
22:54 24.5 °C 5.8 °C 1005.3 hPa West 29.6 km/h 29.6 km/h 30 % 0.0 mm 0.0 W/m2 CLR
22:59 24.4 °C 5.7 °C 1005.3 hPa West 22.2 km/h 22.2 km/h 30 % 0.0 mm 0.0 W/m2 CLR
23:04 24.4 °C 5.7 °C 1005.3 hPa West 19.3 km/h 19.3 km/h 30 % 0.0 mm 0.0 W/m2 CLR
23:09 24.3 °C 6.1 °C 1005.3 hPa West 27.8 km/h 27.8 km/h 31 % 0.0 mm 0.0 W/m2 CLR
23:14 24.2 °C 5.9 °C 1005.6 hPa West 20.4 km/h 20.4 km/h 31 % 0.0 mm 0.0 W/m2 CLR
23:15 24.2 °C 5.9 °C 1005.3 hPa WNW 18.5 km/h 18.5 km/h 31 % 0.0 mm 0.0 W/m2 CLR
23:20 24.0 °C 6.3 °C 1005.6 hPa WNW 20.4 km/h 20.4 km/h 32 % 0.0 mm 0.0 W/m2 CLR
23:25 23.9 °C 6.2 °C 1005.6 hPa WNW 27.8 km/h 27.8 km/h 32 % 0.0 mm 0.0 W/m2 CLR
23:30 23.7 °C 6.9 °C 1006.0 hPa NNW 33.8 km/h 33.8 km/h 34 % 0.0 mm 0.0 W/m2 CLR
23:35 23.6 °C 8.4 °C 1006.0 hPa NNW 33.3 km/h 33.3 km/h 38 % 0.0 mm 0.0 W/m2 CLR
23:40 23.3 °C 9.7 °C 1006.0 hPa NNW 33.3 km/h 33.3 km/h 42 % 0.0 mm 0.0 W/m2 CLR
23:45 22.9 °C 10.4 °C 1006.0 hPa WNW 29.6 km/h 29.6 km/h 45 % 0.0 mm 0.0 W/m2 CLR
23:50 22.6 °C 10.7 °C 1006.3 hPa NW 25.9 km/h 25.9 km/h 47 % 0.0 mm 0.0 W/m2 CLR
23:55 22.3 °C 11.4 °C 1006.3 hPa NW 20.9 km/h 20.9 km/h 50 % 0.0 mm 0.0 W/m2 CLR
Lo Temps de Massalio
Compliments of Weather Underground - 1.25 mb